Time;durP1;ratioP1;P1;durP2;ratioP2;P2;SDS_P1;SDS_P2;PMS_P1;PMS_P2;Temp;Humidity;BMP_temperature;BMP_pressure;BME280_temperature;BME280_humidity;BME280_pressure;Samples;Min_cycle;Max_cycle;Signal;HPM_P1;HPM_P2
2023/10/29 00:02:26;;;;;;;1.80;0.90;;;15.00;67.10;13.80;95306.00;;;;5008888;28;20575;-79
2023/10/29 00:04:54;;;;;;;1.10;0.87;;;15.00;67.00;13.70;95308.00;;;;5016516;28;20316;-80
2023/10/29 00:07:22;;;;;;;1.13;0.80;;;15.00;67.00;13.70;95304.00;;;;5013887;28;20216;-80
2023/10/29 00:09:50;;;;;;;1.83;1.00;;;15.00;67.20;13.70;95296.00;;;;5010071;28;20600;-80
2023/10/29 00:12:17;;;;;;;0.80;0.80;;;14.90;67.10;13.70;95312.00;;;;5033015;28;20209;-79
2023/10/29 00:14:45;;;;;;;0.90;0.80;;;14.90;67.10;13.60;95306.00;;;;5027712;28;20619;-80
2023/10/29 00:17:13;;;;;;;0.97;0.73;;;14.90;67.10;13.60;95309.00;;;;5028092;28;20198;-80
2023/10/29 00:19:42;;;;;;;0.70;0.70;;;14.90;67.00;13.50;95302.00;;;;5018011;28;20221;-79
2023/10/29 00:22:11;;;;;;;1.13;1.00;;;14.90;66.80;13.50;95309.00;;;;5027502;28;20289;-80
2023/10/29 00:24:40;;;;;;;2.50;0.80;;;14.80;66.80;13.50;95316.00;;;;5002479;28;20237;-79
2023/10/29 00:27:07;;;;;;;0.90;0.90;;;14.80;66.80;13.40;95312.00;;;;5033257;28;20202;-79
2023/10/29 00:29:34;;;;;;;0.80;0.80;;;14.80;67.00;13.40;95316.00;;;;5015110;28;20236;-79
2023/10/29 00:32:03;;;;;;;1.30;0.70;;;14.70;66.90;13.40;95309.00;;;;5016144;28;20210;-79
2023/10/29 00:34:31;;;;;;;1.07;0.93;;;14.70;66.90;13.30;95306.00;;;;5028367;28;20293;-80
2023/10/29 00:36:59;;;;;;;0.93;0.83;;;14.70;66.90;13.30;95319.00;;;;5014559;28;20217;-80
2023/10/29 00:39:26;;;;;;;0.83;0.80;;;14.60;66.90;13.30;95326.00;;;;5027340;28;20308;-80
2023/10/29 00:41:57;;;;;;;0.93;0.93;;;14.60;66.90;13.30;95329.00;;;;5017736;28;20201;-79
2023/10/29 00:44:25;;;;;;;0.90;0.90;;;14.60;67.10;13.20;95332.00;;;;5035544;28;20267;-80
2023/10/29 00:46:52;;;;;;;1.77;1.00;;;14.60;67.00;13.20;95329.00;;;;5022863;28;20206;-80
2023/10/29 00:49:20;;;;;;;0.77;0.70;;;14.60;67.00;13.20;95330.00;;;;5034883;28;20752;-80
2023/10/29 00:51:48;;;;;;;0.90;0.80;;;14.50;67.10;13.20;95329.00;;;;5017480;28;20251;-80
2023/10/29 00:54:15;;;;;;;1.13;0.90;;;14.50;67.20;13.20;95327.00;;;;5026648;28;20650;-79
2023/10/29 00:56:43;;;;;;;1.27;0.63;;;14.50;67.30;13.10;95321.00;;;;5015707;28;20205;-79
2023/10/29 00:59:13;;;;;;;1.90;0.70;;;14.50;67.30;13.10;95328.00;;;;5006514;28;20242;-79
2023/10/29 01:01:41;;;;;;;0.70;0.70;;;14.50;67.40;13.10;95328.00;;;;5019737;28;20232;-79
2023/10/29 01:04:08;;;;;;;0.90;0.90;;;14.50;67.50;13.10;95325.00;;;;5016986;28;20225;-79
2023/10/29 01:06:38;;;;;;;1.70;0.60;;;14.50;67.50;13.10;95323.00;;;;5034703;28;20673;-79
2023/10/29 01:09:06;;;;;;;1.20;0.90;;;14.50;67.60;13.10;95328.00;;;;5034293;28;20841;-79
2023/10/29 01:11:35;;;;;;;1.77;0.70;;;14.40;67.60;13.10;95327.00;;;;5018440;28;20658;-79
2023/10/29 01:14:03;;;;;;;1.20;0.70;;;14.40;67.50;13.10;95322.00;;;;5002653;28;20212;-79
2023/10/29 01:16:32;;;;;;;0.83;0.70;;;14.40;67.50;13.10;95319.00;;;;5005122;28;20281;-79
2023/10/29 01:18:59;;;;;;;1.13;1.10;;;14.40;67.60;13.10;95312.00;;;;5030050;28;20221;-80
2023/10/29 01:21:29;;;;;;;0.97;0.80;;;14.40;67.60;13.10;95306.00;;;;5017140;28;20212;-80
2023/10/29 01:23:56;;;;;;;1.33;0.80;;;14.40;67.70;13.10;95297.00;;;;5027442;28;20230;-80
2023/10/29 01:26:24;;;;;;;0.93;0.70;;;14.40;67.80;13.10;95302.00;;;;5036486;28;20201;-79
2023/10/29 01:28:51;;;;;;;0.80;0.60;;;14.40;67.90;13.10;95299.00;;;;5027133;28;20237;-80
2023/10/29 01:31:19;;;;;;;0.83;0.70;;;14.40;67.90;13.00;95302.00;;;;5034011;28;20213;-80
2023/10/29 01:33:47;;;;;;;0.60;0.60;;;14.40;67.90;13.00;95312.00;;;;5040570;28;20291;-79
2023/10/29 01:36:14;;;;;;;0.97;0.70;;;14.30;67.80;13.00;95311.00;;;;5038975;28;20285;-80
2023/10/29 01:38:44;;;;;;;0.80;0.60;;;14.30;67.80;13.00;95300.00;;;;5026319;28;20225;-79
2023/10/29 01:41:11;;;;;;;0.93;0.70;;;14.30;67.80;13.00;95301.00;;;;5033175;28;20204;-79
2023/10/29 01:43:39;;;;;;;1.07;0.70;;;14.30;67.70;13.00;95297.00;;;;5034733;28;20659;-80
2023/10/29 01:46:06;;;;;;;0.43;0.43;;;14.30;67.60;12.90;95296.00;;;;5026595;28;20206;-80
2023/10/29 01:48:34;;;;;;;1.70;0.80;;;14.30;67.60;12.90;95290.00;;;;5010949;28;20210;-79
2023/10/29 01:51:07;;;;;;;0.97;0.70;;;14.30;67.50;12.90;95294.00;;;;5011982;28;20260;-79
2023/10/29 01:53:35;;;;;;;2.10;0.70;;;14.20;67.50;12.90;95289.00;;;;5014782;28;20715;-79
2023/10/29 01:56:07;;;;;;;0.67;0.63;;;14.20;67.50;12.80;95279.00;;;;5031679;28;20209;-78
2023/10/29 01:58:34;;;;;;;0.60;0.60;;;14.20;67.50;12.80;95280.00;;;;5019730;28;20636;-78
2023/10/29 02:01:01;;;;;;;0.87;0.77;;;14.20;67.40;12.80;95287.00;;;;5006258;28;20197;-79
2023/10/29 02:03:30;;;;;;;0.60;0.50;;;14.20;67.40;12.80;95284.00;;;;5014436;28;20201;-79
2023/10/29 02:05:58;;;;;;;0.57;0.57;;;14.20;67.50;12.70;95272.00;;;;5024193;28;20248;-79
2023/10/29 02:08:27;;;;;;;1.00;0.90;;;14.10;67.50;12.80;95279.00;;;;5016374;28;20736;-78
2023/10/29 02:10:54;;;;;;;0.80;0.80;;;14.10;67.60;12.80;95269.00;;;;5016574;28;20227;-79
2023/10/29 02:13:22;;;;;;;0.90;0.70;;;14.10;67.80;12.70;95258.00;;;;5016612;28;20202;-79
2023/10/29 02:15:52;;;;;;;1.00;0.90;;;14.10;67.90;12.70;95269.00;;;;5000278;28;20205;-79
2023/10/29 02:18:19;;;;;;;1.73;0.70;;;14.10;67.90;12.70;95272.00;;;;5000635;28;20201;-80
2023/10/29 02:20:46;;;;;;;0.60;0.60;;;14.00;67.80;12.70;95273.00;;;;5034028;28;20275;-79
2023/10/29 02:23:15;;;;;;;0.93;0.60;;;14.10;67.70;12.60;95276.00;;;;5033947;28;20256;-79
2023/10/29 02:25:43;;;;;;;0.60;0.60;;;14.00;67.60;12.60;95276.00;;;;5017015;28;20224;-80
2023/10/29 02:28:11;;;;;;;1.37;0.67;;;14.00;67.40;12.50;95278.00;;;;5021146;28;20685;-80
2023/10/29 02:30:38;;;;;;;0.93;0.50;;;14.00;67.30;12.50;95276.00;;;;5013514;28;20226;-80
2023/10/29 02:33:05;;;;;;;0.50;0.50;;;13.90;67.20;12.50;95272.00;;;;5031213;28;20224;-80
2023/10/29 02:35:33;;;;;;;0.70;0.70;;;13.90;67.10;12.40;95277.00;;;;5026111;28;20288;-79
2023/10/29 02:38:00;;;;;;;0.60;0.60;;;13.90;67.10;12.40;95274.00;;;;5034280;28;20596;-79
2023/10/29 02:40:29;;;;;;;0.87;0.60;;;13.80;66.90;12.30;95275.00;;;;5034091;28;20225;-79
2023/10/29 02:42:56;;;;;;;1.60;0.77;;;13.80;66.90;12.30;95273.00;;;;5032002;28;20201;-79
2023/10/29 02:45:24;;;;;;;0.80;0.80;;;13.80;67.00;12.30;95272.00;;;;5009858;28;20605;-80
2023/10/29 02:47:53;;;;;;;0.50;0.50;;;13.70;67.10;12.30;95270.00;;;;4995438;28;20210;-79
2023/10/29 02:50:20;;;;;;;1.87;0.57;;;13.70;67.20;12.20;95268.00;;;;5031998;28;21398;-79
2023/10/29 02:52:48;;;;;;;0.67;0.67;;;13.70;67.90;12.20;95271.00;;;;5026134;28;20205;-80
2023/10/29 02:55:15;;;;;;;0.60;0.60;;;13.60;67.10;12.20;95263.00;;;;5015178;28;20213;-79
2023/10/29 02:57:44;;;;;;;0.97;0.60;;;13.60;67.20;12.10;95256.00;;;;5029313;28;20209;-79
2023/10/29 03:00:13;;;;;;;0.70;0.60;;;13.60;67.30;12.10;95259.00;;;;5031623;28;20232;-80
2023/10/29 03:02:40;;;;;;;1.37;0.60;;;13.50;67.30;12.10;95255.00;;;;5012066;28;20644;-80
2023/10/29 03:05:11;;;;;;;0.80;0.80;;;13.60;67.30;12.00;95256.00;;;;5013699;28;20225;-79
2023/10/29 03:07:39;;;;;;;0.50;0.50;;;13.50;67.20;12.00;95264.00;;;;5032474;28;20658;-80
2023/10/29 03:10:07;;;;;;;0.70;0.57;;;13.50;67.30;12.00;95264.00;;;;5024552;28;20273;-79
2023/10/29 03:12:35;;;;;;;0.70;0.70;;;13.50;67.50;12.00;95256.00;;;;5026763;28;20292;-80
2023/10/29 03:15:05;;;;;;;0.63;0.60;;;13.40;67.60;12.00;95259.00;;;;5015639;28;20212;-80
2023/10/29 03:17:32;;;;;;;0.60;0.60;;;13.40;67.80;12.00;95251.00;;;;5025586;28;20300;-79
2023/10/29 03:20:00;;;;;;;0.70;0.70;;;13.40;68.00;12.00;95252.00;;;;5032127;28;20761;-79
2023/10/29 03:22:28;;;;;;;0.60;0.60;;;13.40;68.10;12.00;95250.00;;;;5012638;28;20225;-79
2023/10/29 03:24:55;;;;;;;0.60;0.60;;;13.40;68.30;12.00;95244.00;;;;5028471;28;20229;-79
2023/10/29 03:27:22;;;;;;;1.33;0.50;;;13.40;68.40;12.00;95247.00;;;;5012401;28;20288;-79
2023/10/29 03:29:50;;;;;;;1.07;0.70;;;13.40;68.40;12.00;95245.00;;;;5015427;28;20264;-79
2023/10/29 03:32:20;;;;;;;0.60;0.60;;;13.40;68.60;12.00;95250.00;;;;5015386;28;20233;-79
2023/10/29 03:34:47;;;;;;;1.00;0.53;;;13.40;68.80;12.00;95247.00;;;;5024694;28;20292;-79
2023/10/29 03:37:15;;;;;;;0.70;0.70;;;13.40;68.60;12.00;95248.00;;;;5013872;28;20354;-79
2023/10/29 03:39:43;;;;;;;0.50;0.50;;;13.40;68.60;12.00;95251.00;;;;5027988;28;20314;-79
2023/10/29 03:42:10;;;;;;;0.53;0.50;;;13.40;68.70;12.00;95239.00;;;;5036090;28;20211;-79
2023/10/29 03:44:37;;;;;;;0.60;0.60;;;13.40;68.80;12.00;95243.00;;;;5034942;28;20308;-79
2023/10/29 03:47:06;;;;;;;1.30;0.70;;;13.40;68.80;12.10;95248.00;;;;5036045;28;20905;-80
2023/10/29 03:49:35;;;;;;;0.73;0.70;;;13.40;68.80;12.10;95248.00;;;;5019041;28;20229;-79
2023/10/29 03:52:02;;;;;;;0.67;0.57;;;13.40;68.80;12.10;95248.00;;;;5034961;28;20554;-80
2023/10/29 03:54:29;;;;;;;0.60;0.60;;;13.40;68.80;12.10;95244.00;;;;5018756;28;20217;-79
2023/10/29 03:56:57;;;;;;;0.80;0.80;;;13.40;68.90;12.10;95249.00;;;;5034982;28;20666;-79
2023/10/29 03:59:24;;;;;;;0.63;0.63;;;13.40;68.80;12.10;95248.00;;;;5012351;28;20300;-79
2023/10/29 04:01:52;;;;;;;1.00;0.70;;;13.50;68.90;12.10;95250.00;;;;5037650;28;20280;-80
2023/10/29 04:04:19;;;;;;;1.53;0.60;;;13.50;68.80;12.10;95246.00;;;;5028230;28;20264;-79
2023/10/29 04:06:49;;;;;;;0.77;0.60;;;13.50;68.80;12.10;95245.00;;;;5038285;28;20205;-80
2023/10/29 04:09:17;;;;;;;0.60;0.60;;;13.50;68.70;12.10;95227.00;;;;5031434;28;20305;-79
2023/10/29 04:11:44;;;;;;;0.53;0.53;;;13.50;68.70;12.10;95226.00;;;;5040407;28;20284;-80
2023/10/29 04:14:12;;;;;;;0.60;0.60;;;13.40;68.60;12.10;95228.00;;;;5043566;28;20205;-79
2023/10/29 04:16:39;;;;;;;1.10;0.60;;;13.40;68.60;12.10;95222.00;;;;5035994;28;20299;-79
2023/10/29 04:19:06;;;;;;;1.27;0.70;;;13.50;68.70;12.00;95225.00;;;;5025602;28;20765;-80
2023/10/29 04:21:35;;;;;;;0.70;0.70;;;13.40;68.60;12.00;95223.00;;;;5019923;28;20207;-80
2023/10/29 04:24:05;;;;;;;1.67;0.60;;;13.40;68.50;12.00;95213.00;;;;5037033;28;20209;-79
2023/10/29 04:26:33;;;;;;;1.93;0.53;;;13.40;68.30;12.00;95207.00;;;;5016107;28;20213;-79
2023/10/29 04:29:01;;;;;;;0.50;0.50;;;13.40;68.30;11.90;95206.00;;;;5036183;28;20312;-79
2023/10/29 04:31:30;;;;;;;1.10;0.60;;;13.40;68.30;11.90;95217.00;;;;4986851;28;20201;-79
2023/10/29 04:33:59;;;;;;;2.33;0.50;;;13.40;68.40;11.90;95213.00;;;;5019359;28;20249;-79
2023/10/29 04:36:26;;;;;;;0.93;0.80;;;13.30;68.40;11.90;95216.00;;;;5020450;28;20259;-80
2023/10/29 04:38:53;;;;;;;0.70;0.70;;;13.30;68.40;11.90;95212.00;;;;5018451;28;20224;-79
2023/10/29 04:41:23;;;;;;;0.70;0.70;;;13.30;68.30;11.90;95216.00;;;;5032639;28;20288;-79
2023/10/29 04:43:51;;;;;;;0.53;0.53;;;13.30;68.30;11.80;95228.00;;;;5023982;28;20210;-79
2023/10/29 04:46:18;;;;;;;1.50;0.73;;;13.30;68.30;11.80;95223.00;;;;5014669;28;20225;-79
2023/10/29 04:48:45;;;;;;;0.70;0.70;;;13.20;68.20;11.80;95224.00;;;;5017902;28;20216;-79
2023/10/29 04:51:13;;;;;;;0.70;0.70;;;13.20;68.10;11.80;95218.00;;;;5035188;28;20205;-79
2023/10/29 04:53:40;;;;;;;3.20;0.70;;;13.20;68.10;11.80;95213.00;;;;5036601;28;20207;-79
2023/10/29 04:56:07;;;;;;;1.43;0.80;;;13.20;68.20;11.80;95201.00;;;;5037074;28;20215;-79
2023/10/29 04:58:38;;;;;;;1.07;0.70;;;13.20;68.30;11.80;95198.00;;;;5020379;28;20212;-79
2023/10/29 05:01:06;;;;;;;0.73;0.70;;;13.20;68.40;11.80;95204.00;;;;5016560;28;20726;-79
2023/10/29 05:03:33;;;;;;;0.60;0.60;;;13.20;68.40;11.70;95210.00;;;;5019413;28;20207;-79
2023/10/29 05:06:00;;;;;;;1.57;0.70;;;13.20;68.40;11.70;95212.00;;;;5019303;28;20312;-80
2023/10/29 05:08:29;;;;;;;0.70;0.70;;;13.10;68.20;11.70;95210.00;;;;5019817;28;20204;-79
2023/10/29 05:10:57;;;;;;;0.73;0.70;;;13.10;68.20;11.70;95206.00;;;;5020335;28;20558;-79
2023/10/29 05:13:24;;;;;;;2.43;0.67;;;13.10;68.10;11.60;95205.00;;;;5025631;28;20197;-79
2023/10/29 05:15:53;;;;;;;0.60;0.60;;;13.10;68.00;11.60;95205.00;;;;5029889;28;20201;-80
2023/10/29 05:18:20;;;;;;;1.43;0.90;;;13.10;68.60;11.60;95196.00;;;;5047966;28;20286;-79
2023/10/29 05:20:49;;;;;;;1.53;0.57;;;13.10;67.80;11.60;95191.00;;;;5035853;28;20292;-80
2023/10/29 05:23:16;;;;;;;1.23;0.70;;;13.00;67.70;11.50;95181.00;;;;5046027;28;20456;-79
2023/10/29 05:25:44;;;;;;;1.00;0.67;;;13.00;67.70;11.50;95164.00;;;;5047506;28;20227;-80
2023/10/29 05:28:11;;;;;;;1.43;0.63;;;13.00;67.70;11.40;95168.00;;;;5045089;28;20205;-80
2023/10/29 05:30:39;;;;;;;1.43;0.70;;;13.00;67.70;11.40;95168.00;;;;5033241;28;20788;-80
2023/10/29 05:33:08;;;;;;;0.63;0.63;;;12.90;67.70;11.40;95175.00;;;;5016942;28;20208;-80
2023/10/29 05:35:35;;;;;;;0.80;0.80;;;12.90;67.70;11.40;95170.00;;;;5028501;28;20206;-79
2023/10/29 05:38:02;;;;;;;1.87;0.80;;;12.90;67.80;11.30;95163.00;;;;5012550;28;20240;-79
2023/10/29 05:40:30;;;;;;;0.80;0.80;;;12.80;67.80;11.30;95170.00;;;;5015043;28;20217;-79
2023/10/29 05:42:58;;;;;;;0.90;0.90;;;12.80;67.80;11.30;95161.00;;;;5025076;28;20216;-79
2023/10/29 05:45:27;;;;;;;1.70;1.00;;;12.80;68.00;11.30;95173.00;;;;5015196;28;20307;-79
2023/10/29 05:47:56;;;;;;;1.27;0.90;;;12.80;68.00;11.30;95173.00;;;;5024969;28;20201;-80
2023/10/29 05:50:26;;;;;;;1.43;0.90;;;12.80;68.10;11.30;95179.00;;;;5012730;28;20226;-79
2023/10/29 05:52:53;;;;;;;1.03;0.90;;;12.70;68.10;11.30;95191.00;;;;5017196;28;20230;-79
2023/10/29 05:55:22;;;;;;;0.83;0.80;;;12.70;68.20;11.30;95185.00;;;;4991926;28;20205;-80
2023/10/29 05:57:50;;;;;;;0.77;0.77;;;12.70;68.30;11.30;95185.00;;;;5031731;28;20655;-79
2023/10/29 06:00:18;;;;;;;0.80;0.80;;;12.70;68.30;11.30;95190.00;;;;5008038;28;20221;-80
2023/10/29 06:02:46;;;;;;;0.90;0.90;;;12.70;68.30;11.30;95177.00;;;;5033517;28;20205;-80
2023/10/29 06:05:13;;;;;;;0.80;0.80;;;12.70;69.00;11.30;95178.00;;;;5034048;28;20878;-79
2023/10/29 06:07:43;;;;;;;0.93;0.80;;;12.70;68.20;11.30;95181.00;;;;5011592;28;20206;-79
2023/10/29 06:10:13;;;;;;;0.70;0.70;;;12.70;68.30;11.20;95181.00;;;;5014952;28;20225;-80
2023/10/29 06:12:40;;;;;;;0.70;0.70;;;12.70;68.30;11.20;95186.00;;;;5011704;28;20206;-80
2023/10/29 06:15:11;;;;;;;0.83;0.80;;;12.70;68.30;11.20;95197.00;;;;5031584;28;20674;-80
2023/10/29 06:17:38;;;;;;;1.17;0.80;;;12.60;68.20;11.20;95202.00;;;;5017095;28;20205;-79
2023/10/29 06:20:10;;;;;;;0.60;0.60;;;12.70;68.30;11.20;95195.00;;;;5007831;28;20221;-79
2023/10/29 06:22:38;;;;;;;0.73;0.73;;;12.70;68.20;11.20;95198.00;;;;5027375;28;20213;-79
2023/10/29 06:25:09;;;;;;;1.23;0.70;;;12.70;68.30;11.20;95196.00;;;;5034123;28;20615;-80
2023/10/29 06:27:37;;;;;;;0.87;0.87;;;12.60;68.20;11.10;95194.00;;;;5023990;28;20205;-79
2023/10/29 06:30:06;;;;;;;0.87;0.70;;;12.60;68.20;11.10;95191.00;;;;5033471;28;20232;-80
2023/10/29 06:32:33;;;;;;;0.73;0.70;;;12.60;68.20;11.10;95180.00;;;;5033108;28;20284;-79
2023/10/29 06:35:01;;;;;;;1.00;0.73;;;12.60;68.40;11.10;95182.00;;;;5015121;28;20288;-79
2023/10/29 06:37:28;;;;;;;0.87;0.80;;;12.60;68.40;11.10;95180.00;;;;5008820;28;20196;-79
2023/10/29 06:39:55;;;;;;;1.13;0.70;;;12.60;68.50;11.10;95182.00;;;;5032845;28;20656;-79
2023/10/29 06:42:24;;;;;;;0.87;0.87;;;12.60;68.70;11.10;95182.00;;;;5032264;28;20197;-80
2023/10/29 06:44:52;;;;;;;0.80;0.70;;;12.60;68.90;11.10;95180.00;;;;5032940;28;20219;-79
2023/10/29 06:47:19;;;;;;;1.43;0.90;;;12.60;69.00;11.10;95193.00;;;;5034708;28;20217;-79
2023/10/29 06:49:46;;;;;;;1.03;0.93;;;12.60;69.20;11.20;95203.00;;;;5035356;28;20707;-79
2023/10/29 06:52:15;;;;;;;0.57;0.57;;;12.60;69.40;11.20;95205.00;;;;5016974;28;20232;-79
2023/10/29 06:54:42;;;;;;;0.83;0.73;;;12.60;69.60;11.20;95209.00;;;;5018282;28;20237;-79
2023/10/29 06:57:09;;;;;;;1.27;0.70;;;12.60;69.80;11.30;95208.00;;;;5006861;28;20285;-79
2023/10/29 06:59:39;;;;;;;0.60;0.60;;;12.70;70.00;11.30;95211.00;;;;5019330;28;20248;-80
2023/10/29 07:02:07;;;;;;;0.60;0.60;;;12.70;70.10;11.40;95208.00;;;;5020994;28;20209;-80
2023/10/29 07:04:34;;;;;;;0.60;0.60;;;12.70;70.20;11.40;95206.00;;;;5040852;28;20682;-79
2023/10/29 07:07:02;;;;;;;0.70;0.70;;;12.80;70.30;11.40;95207.00;;;;5022943;28;20228;-84
2023/10/29 07:09:29;;;;;;;1.37;0.70;;;12.80;70.30;11.50;95208.00;;;;5009183;28;20289;-79
2023/10/29 07:11:56;;;;;;;0.70;0.70;;;12.80;70.40;11.50;95212.00;;;;5018000;28;20296;-80
2023/10/29 07:14:23;;;;;;;0.70;0.70;;;12.90;70.50;11.60;95205.00;;;;5016597;28;20292;-80
2023/10/29 07:16:52;;;;;;;0.80;0.67;;;12.90;70.50;11.60;95217.00;;;;5019880;28;20215;-79
2023/10/29 07:19:20;;;;;;;0.70;0.70;;;12.90;70.50;11.60;95205.00;;;;5034091;28;20226;-79
2023/10/29 07:21:48;;;;;;;0.67;0.67;;;12.90;70.50;11.70;95211.00;;;;5018765;28;20233;-79
2023/10/29 07:24:15;;;;;;;0.80;0.80;;;13.00;70.50;11.70;95217.00;;;;5036394;28;20201;-78
2023/10/29 07:26:43;;;;;;;0.83;0.80;;;13.00;70.50;11.70;95224.00;;;;5017293;28;20226;-78
2023/10/29 07:29:11;;;;;;;0.83;0.60;;;13.00;70.60;11.80;95209.00;;;;5032701;28;20336;-79
2023/10/29 07:31:38;;;;;;;0.70;0.70;;;13.00;70.70;11.80;95213.00;;;;5035528;28;20201;-77
2023/10/29 07:34:07;;;;;;;1.17;0.80;;;13.10;71.00;11.90;95215.00;;;;5009940;28;20224;-79
2023/10/29 07:36:35;;;;;;;1.53;0.70;;;13.10;71.20;11.90;95218.00;;;;5035548;28;20288;-80
2023/10/29 07:39:02;;;;;;;1.10;0.87;;;13.20;71.50;12.00;95228.00;;;;5027576;28;20595;-79
2023/10/29 07:41:29;;;;;;;0.80;0.80;;;13.20;71.80;12.10;95222.00;;;;5020494;28;20658;-79
2023/10/29 07:43:56;;;;;;;1.07;0.93;;;13.30;72.00;12.20;95228.00;;;;5029585;28;20201;-80
2023/10/29 07:46:25;;;;;;;0.90;0.90;;;13.30;72.20;12.30;95234.00;;;;5034224;28;20338;-79
2023/10/29 07:48:52;;;;;;;1.10;0.90;;;13.40;72.40;12.40;95229.00;;;;5026380;28;20688;-79
2023/10/29 07:51:21;;;;;;;1.40;0.70;;;13.50;72.50;12.40;95218.00;;;;5019247;28;20680;-79
2023/10/29 07:53:49;;;;;;;0.80;0.80;;;13.50;72.60;12.50;95228.00;;;;4997807;28;20206;-79
2023/10/29 07:56:19;;;;;;;1.20;0.80;;;13.60;72.60;12.60;95230.00;;;;5019456;28;20582;-80
2023/10/29 07:58:47;;;;;;;2.20;1.20;;;13.70;72.60;12.70;95232.00;;;;5033938;28;20232;-79
2023/10/29 08:01:15;;;;;;;1.00;0.83;;;13.80;72.50;12.70;95230.00;;;;5018212;28;20209;-79
2023/10/29 08:03:45;;;;;;;0.60;0.60;;;13.80;72.60;12.80;95231.00;;;;5030837;28;20209;-79
2023/10/29 08:06:14;;;;;;;0.93;0.77;;;13.90;72.60;12.90;95238.00;;;;5018318;28;20252;-79
2023/10/29 08:08:42;;;;;;;0.90;0.90;;;14.00;72.60;13.00;95235.00;;;;5028665;28;20240;-79
2023/10/29 08:11:19;;;;;;;0.60;0.60;;;14.10;72.80;13.00;95229.00;;;;5035802;28;20288;-78
2023/10/29 08:13:46;;;;;;;1.07;0.70;;;14.10;72.90;13.10;95232.00;;;;5021815;28;20685;-79
2023/10/29 08:16:14;;;;;;;0.80;0.80;;;14.20;72.70;13.20;95246.00;;;;5001792;28;20213;-79
2023/10/29 08:18:42;;;;;;;1.30;0.70;;;14.30;72.70;13.30;95247.00;;;;5034955;28;20284;-79
2023/10/29 08:21:09;;;;;;;0.70;0.70;;;14.40;72.80;13.40;95247.00;;;;5025961;28;20210;-79
2023/10/29 08:23:36;;;;;;;0.90;0.90;;;14.40;72.70;13.50;95258.00;;;;5008659;28;20203;-79
2023/10/29 08:26:05;;;;;;;0.70;0.70;;;14.50;72.70;13.60;95263.00;;;;5024942;28;20856;-79
2023/10/29 08:28:33;;;;;;;2.83;0.80;;;14.60;72.70;13.70;95260.00;;;;5022518;28;20212;-78
2023/10/29 08:31:01;;;;;;;1.63;0.97;;;14.70;72.60;13.80;95262.00;;;;5034063;28;20210;-79
2023/10/29 08:33:30;;;;;;;1.53;0.70;;;14.80;72.50;13.90;95257.00;;;;5016553;28;20204;-79
2023/10/29 08:35:57;;;;;;;0.80;0.80;;;14.90;72.30;14.00;95254.00;;;;5034121;28;20296;-79
2023/10/29 08:38:24;;;;;;;0.83;0.80;;;15.00;72.00;14.10;95255.00;;;;5035340;28;20265;-79
2023/10/29 08:40:52;;;;;;;1.00;0.90;;;15.10;71.80;14.20;95249.00;;;;5035506;28;20772;-80
2023/10/29 08:43:21;;;;;;;0.90;0.90;;;15.20;71.70;14.30;95263.00;;;;5035671;28;20212;-79
2023/10/29 08:45:48;;;;;;;0.70;0.70;;;15.30;71.60;14.40;95260.00;;;;5036331;28;20315;-79
2023/10/29 08:48:16;;;;;;;0.87;0.87;;;15.30;71.40;14.50;95255.00;;;;5035018;28;20947;-80
2023/10/29 08:50:43;;;;;;;0.83;0.70;;;15.40;71.40;14.60;95251.00;;;;5035114;28;20312;-78
2023/10/29 08:53:10;;;;;;;1.37;0.83;;;15.50;71.50;14.70;95252.00;;;;5035947;28;20206;-80
2023/10/29 08:55:37;;;;;;;1.23;0.97;;;15.60;71.20;14.70;95254.00;;;;5017902;28;20680;-77
2023/10/29 08:58:05;;;;;;;1.73;1.30;;;15.70;71.10;14.80;95258.00;;;;5014135;28;20209;-79
2023/10/29 09:00:34;;;;;;;2.80;1.90;;;15.80;71.10;14.90;95257.00;;;;5016673;28;20232;-78
2023/10/29 09:03:01;;;;;;;2.13;1.40;;;15.80;70.90;14.90;95257.00;;;;5034527;28;20217;-78
2023/10/29 09:05:29;;;;;;;1.23;1.13;;;15.90;70.70;15.00;95258.00;;;;5026836;28;20216;-79
2023/10/29 09:07:56;;;;;;;0.77;0.70;;;16.00;70.50;15.10;95266.00;;;;5026581;28;20233;-79
2023/10/29 09:10:23;;;;;;;1.37;1.03;;;16.00;70.60;15.20;95268.00;;;;5034555;28;20312;-78
2023/10/29 09:12:53;;;;;;;1.17;1.00;;;16.10;70.80;15.20;95277.00;;;;5034976;28;20205;-79
2023/10/29 09:15:21;;;;;;;1.70;1.00;;;16.20;70.90;15.30;95267.00;;;;5033812;28;20721;-78
2023/10/29 09:17:49;;;;;;;0.80;0.80;;;16.30;70.60;15.40;95267.00;;;;5034721;28;20290;-78
2023/10/29 09:20:17;;;;;;;2.50;1.30;;;16.30;69.90;15.50;95269.00;;;;5010274;28;20279;-79
2023/10/29 09:22:44;;;;;;;1.00;0.97;;;16.40;70.10;15.60;95265.00;;;;5033498;28;20205;-79
2023/10/29 09:25:12;;;;;;;0.90;0.90;;;16.50;70.00;15.60;95273.00;;;;5015173;28;20201;-79
2023/10/29 09:27:42;;;;;;;0.97;0.90;;;16.60;69.80;15.70;95272.00;;;;5030040;28;20285;-79
2023/10/29 09:30:11;;;;;;;1.50;1.10;;;16.60;69.60;15.80;95267.00;;;;5025738;28;20221;-79
2023/10/29 09:32:38;;;;;;;1.20;1.10;;;16.70;69.40;15.90;95270.00;;;;5017247;28;20205;-78
2023/10/29 09:35:08;;;;;;;1.53;1.23;;;16.80;69.20;16.00;95274.00;;;;5035438;28;20263;-78
2023/10/29 09:37:35;;;;;;;1.10;1.00;;;16.90;69.00;16.10;95266.00;;;;5034389;28;20662;-78
2023/10/29 09:40:08;;;;;;;0.80;0.80;;;17.00;69.00;16.20;95273.00;;;;5018889;28;20714;-78
2023/10/29 09:42:46;;;;;;;1.10;1.00;;;17.10;69.10;16.30;95274.00;;;;5029749;28;20215;-79
2023/10/29 09:45:15;;;;;;;1.40;1.30;;;17.20;68.80;16.40;95267.00;;;;5019354;28;20300;-79
2023/10/29 09:47:43;;;;;;;1.17;1.10;;;17.30;68.80;16.60;95258.00;;;;5021011;28;20226;-79
2023/10/29 09:50:12;;;;;;;1.23;1.00;;;17.30;68.90;16.70;95247.00;;;;5034346;28;20218;-81
2023/10/29 09:52:39;;;;;;;1.17;1.07;;;17.50;68.90;16.80;95251.00;;;;5034583;28;20194;-80
2023/10/29 09:55:10;;;;;;;1.30;1.20;;;17.60;69.10;16.90;95244.00;;;;5025712;28;20202;-80
2023/10/29 09:57:39;;;;;;;1.13;1.10;;;17.70;69.20;17.00;95236.00;;;;4995814;28;20509;-80
2023/10/29 10:00:09;;;;;;;1.10;0.90;;;17.80;69.10;17.10;95240.00;;;;5033566;28;20229;-80
2023/10/29 10:02:59;;;;;;;0.97;0.93;;;17.90;69.00;17.20;95250.00;;;;5032990;28;20209;-79
2023/10/29 10:05:30;;;;;;;1.00;0.90;;;18.00;68.60;17.30;95254.00;;;;5018280;28;20264;-79
2023/10/29 10:07:58;;;;;;;0.80;0.80;;;18.10;68.90;17.40;95264.00;;;;5034306;28;20293;-80
2023/10/29 10:10:39;;;;;;;0.70;0.70;;;18.20;69.00;17.60;95269.00;;;;5012336;28;20218;-79
2023/10/29 10:13:08;;;;;;;2.20;1.00;;;18.30;69.10;17.70;95261.00;;;;5030647;28;20288;-79
2023/10/29 10:15:38;;;;;;;1.70;1.17;;;18.40;69.10;17.80;95255.00;;;;5015888;28;20239;-79
2023/10/29 10:18:07;;;;;;;0.80;0.80;;;18.50;68.20;17.90;95265.00;;;;5033211;28;20220;-79
2023/10/29 10:20:36;;;;;;;1.40;0.93;;;18.60;68.00;18.00;95276.00;;;;5032241;28;20225;-80
2023/10/29 10:23:06;;;;;;;0.93;0.70;;;18.70;68.20;18.20;95282.00;;;;5032507;28;20289;-79
2023/10/29 10:25:35;;;;;;;0.83;0.80;;;18.80;67.60;18.30;95290.00;;;;4999121;28;20201;-79
2023/10/29 10:28:05;;;;;;;0.70;0.60;;;18.90;67.50;18.40;95285.00;;;;5021182;28;20281;-79
2023/10/29 10:30:34;;;;;;;0.80;0.50;;;19.00;67.00;18.40;95281.00;;;;5033386;28;20253;-79
2023/10/29 10:33:14;;;;;;;1.00;0.70;;;19.10;67.10;18.50;95279.00;;;;5008634;28;20257;-79
2023/10/29 10:35:46;;;;;;;1.03;0.67;;;19.20;66.90;18.50;95282.00;;;;5005071;28;20213;-79
2023/10/29 10:38:19;;;;;;;0.70;0.70;;;19.30;66.80;18.60;95274.00;;;;5034312;28;20239;-79
2023/10/29 10:40:47;;;;;;;0.70;0.70;;;19.40;66.50;18.70;95274.00;;;;5017490;28;20313;-79
2023/10/29 10:43:20;;;;;;;0.53;0.53;;;19.40;66.50;18.70;95261.00;;;;5035182;28;20218;-79
2023/10/29 10:45:51;;;;;;;0.93;0.50;;;19.50;65.60;18.80;95264.00;;;;5035436;28;20227;-79
2023/10/29 10:48:19;;;;;;;0.73;0.73;;;19.50;66.10;18.80;95267.00;;;;5026871;28;20735;-79
2023/10/29 10:50:48;;;;;;;0.50;0.50;;;19.60;65.70;18.90;95266.00;;;;5033149;28;20594;-79
2023/10/29 10:53:18;;;;;;;1.00;0.80;;;19.60;64.70;18.90;95264.00;;;;5029345;28;20556;-79
2023/10/29 10:55:49;;;;;;;1.00;0.60;;;19.60;64.80;18.90;95257.00;;;;5020614;28;20216;-79
2023/10/29 10:58:19;;;;;;;0.90;0.90;;;19.70;65.00;19.00;95260.00;;;;5019799;28;20747;-80
2023/10/29 11:00:50;;;;;;;0.70;0.70;;;19.80;65.20;19.00;95251.00;;;;5019605;28;20311;-80